createdAt,value
2022-10-18T00:01:51.251Z,11.70
2022-10-18T00:04:19.140Z,11.70
2022-10-18T00:06:47.747Z,11.60
2022-10-18T00:09:15.874Z,11.60
2022-10-18T00:11:44.643Z,11.60
2022-10-18T00:14:12.792Z,11.60
2022-10-18T00:16:40.823Z,11.60
2022-10-18T00:19:09.218Z,11.60
2022-10-18T00:21:37.220Z,11.60
2022-10-18T00:24:06.298Z,11.50
2022-10-18T00:26:36.750Z,11.50
2022-10-18T00:29:06.819Z,11.40
2022-10-18T00:31:37.728Z,11.40
2022-10-18T00:34:10.392Z,11.40
2022-10-18T00:36:38.691Z,11.30
2022-10-18T00:39:09.457Z,11.30
2022-10-18T00:41:38.139Z,11.20
2022-10-18T00:44:28.114Z,11.20
2022-10-18T00:47:03.069Z,11.10
2022-10-18T00:49:35.241Z,11.10
2022-10-18T00:52:12.089Z,11.00
2022-10-18T00:54:43.211Z,11.00
2022-10-18T00:57:13.298Z,11.00
2022-10-18T00:59:42.925Z,10.90
2022-10-18T01:02:11.615Z,11.00
2022-10-18T01:04:40.743Z,10.90
2022-10-18T01:07:27.180Z,10.90
2022-10-18T01:10:24.579Z,10.90
2022-10-18T01:13:01.350Z,10.90
2022-10-18T01:15:35.572Z,10.90
2022-10-18T01:18:27.959Z,10.90
2022-10-18T01:21:27.579Z,10.90
2022-10-18T01:24:28.170Z,10.80
2022-10-18T01:27:30.998Z,10.80
2022-10-18T01:30:18.056Z,10.80
2022-10-18T01:32:54.023Z,10.80
2022-10-18T01:35:31.197Z,10.80
2022-10-18T01:38:02.927Z,10.70
2022-10-18T01:40:32.660Z,10.70
2022-10-18T01:43:03.979Z,10.70
2022-10-18T01:45:34.608Z,10.60
2022-10-18T01:48:03.101Z,10.60
2022-10-18T01:50:33.912Z,10.50
2022-10-18T01:53:02.185Z,10.50
2022-10-18T01:55:42.683Z,10.50
2022-10-18T01:58:21.490Z,10.50
2022-10-18T02:01:00.605Z,10.50
2022-10-18T02:03:29.977Z,10.50
2022-10-18T02:06:16.271Z,10.50
2022-10-18T02:09:10.892Z,10.50
2022-10-18T02:11:41.556Z,10.50
2022-10-18T02:14:16.339Z,10.40
2022-10-18T02:16:54.465Z,10.40
2022-10-18T02:19:31.161Z,10.30
2022-10-18T02:22:00.473Z,10.40
2022-10-18T02:24:35.655Z,10.40
2022-10-18T02:27:04.206Z,10.40
2022-10-18T02:29:32.924Z,10.30
2022-10-18T02:32:14.252Z,10.30
2022-10-18T02:34:48.406Z,10.30
2022-10-18T02:37:17.927Z,10.20
2022-10-18T02:39:49.193Z,10.20
2022-10-18T02:42:17.667Z,10.20
2022-10-18T02:44:46.432Z,10.10
2022-10-18T02:47:15.112Z,10.10
2022-10-18T02:49:43.478Z,10.10
2022-10-18T02:52:11.920Z,10.10
2022-10-18T02:54:40.630Z,10.10
2022-10-18T02:57:11.335Z,10.10
2022-10-18T02:59:39.676Z,10.10
2022-10-18T03:02:07.544Z,10.10
2022-10-18T03:04:35.804Z,10.10
2022-10-18T03:07:04.466Z,10.00
2022-10-18T03:09:32.174Z,10.10
2022-10-18T03:12:03.131Z,10.00
2022-10-18T03:14:30.938Z,10.00
2022-10-18T03:17:01.734Z,10.00
2022-10-18T03:19:30.414Z,9.90
2022-10-18T03:21:58.280Z,9.90
2022-10-18T03:24:26.221Z,9.80
2022-10-18T03:26:54.291Z,9.80
2022-10-18T03:29:22.015Z,9.70
2022-10-18T03:31:50.358Z,9.70
2022-10-18T03:34:18.656Z,9.80
2022-10-18T03:36:46.972Z,9.70
2022-10-18T03:39:15.086Z,9.70
2022-10-18T03:41:43.051Z,9.70
2022-10-18T03:44:13.256Z,9.70
2022-10-18T03:46:41.232Z,9.70
2022-10-18T03:49:08.950Z,9.70
2022-10-18T03:51:37.447Z,9.70
2022-10-18T03:54:05.598Z,9.70
2022-10-18T03:56:34.178Z,9.70
2022-10-18T03:59:04.519Z,9.70
2022-10-18T04:01:32.622Z,9.70
2022-10-18T04:04:01.276Z,9.70
2022-10-18T04:06:29.808Z,9.70
2022-10-18T04:08:57.829Z,9.70
2022-10-18T04:11:28.812Z,9.70
2022-10-18T04:13:57.346Z,9.60
2022-10-18T04:16:25.525Z,9.60
2022-10-18T04:18:53.301Z,9.60
2022-10-18T04:21:21.359Z,9.50
2022-10-18T04:23:51.241Z,9.40
2022-10-18T04:26:19.680Z,9.40
2022-10-18T04:28:47.434Z,9.40
2022-10-18T04:31:15.353Z,9.30
2022-10-18T04:33:43.543Z,9.30
2022-10-18T04:36:11.566Z,9.30
2022-10-18T04:38:39.440Z,9.30
2022-10-18T04:41:07.958Z,9.20
2022-10-18T04:43:35.817Z,9.20
2022-10-18T04:46:03.823Z,9.20
2022-10-18T04:48:36.316Z,9.10
2022-10-18T04:51:04.401Z,9.10
2022-10-18T04:53:32.671Z,9.10
2022-10-18T04:56:00.735Z,9.10
2022-10-18T04:58:28.603Z,9.10
2022-10-18T05:00:56.942Z,9.10
2022-10-18T05:03:24.813Z,9.10
2022-10-18T05:06:03.602Z,9.10
2022-10-18T05:08:34.846Z,9.10
2022-10-18T05:11:04.324Z,9.10
2022-10-18T05:13:33.202Z,9.10
2022-10-18T05:16:04.115Z,9.00
2022-10-18T05:18:32.489Z,9.10
2022-10-18T05:21:00.879Z,9.00
2022-10-18T05:23:28.703Z,9.00
2022-10-18T05:26:02.181Z,8.90
2022-10-18T05:28:46.230Z,8.90
2022-10-18T05:31:14.644Z,8.90
2022-10-18T05:33:42.923Z,8.90
2022-10-18T05:36:11.320Z,8.90
2022-10-18T05:38:42.682Z,8.90
2022-10-18T05:41:11.163Z,8.90
2022-10-18T05:43:40.941Z,8.90
2022-10-18T05:46:14.717Z,8.90
2022-10-18T05:48:44.724Z,8.90
2022-10-18T05:51:12.615Z,8.90
2022-10-18T05:53:40.349Z,8.90
2022-10-18T05:56:08.907Z,8.90
2022-10-18T05:58:37.346Z,8.90
2022-10-18T06:01:06.207Z,8.90
2022-10-18T06:03:35.162Z,8.90
2022-10-18T06:06:08.521Z,8.90
2022-10-18T06:08:37.496Z,8.80
2022-10-18T06:11:16.125Z,8.80
2022-10-18T06:13:46.943Z,8.70
2022-10-18T06:16:23.140Z,8.70
2022-10-18T06:20:27.097Z,8.60
2022-10-18T06:22:57.798Z,8.60
2022-10-18T06:25:25.590Z,8.60
2022-10-18T06:27:53.573Z,8.50
2022-10-18T06:30:21.857Z,8.50
2022-10-18T06:32:50.997Z,8.40
2022-10-18T06:35:19.226Z,8.40
2022-10-18T06:37:49.878Z,8.40
2022-10-18T06:40:17.985Z,8.40
2022-10-18T06:42:55.282Z,8.40
2022-10-18T06:45:34.022Z,8.30
2022-10-18T06:48:02.039Z,8.30
2022-10-18T06:50:32.347Z,8.30
2022-10-18T06:53:01.447Z,8.30
2022-10-18T06:55:30.840Z,8.30
2022-10-18T06:57:58.783Z,8.30
2022-10-18T07:00:26.966Z,8.30
2022-10-18T07:02:56.447Z,8.20
2022-10-18T07:05:24.509Z,8.20
2022-10-18T07:07:56.317Z,8.20
2022-10-18T07:10:27.186Z,8.20
2022-10-18T07:13:13.567Z,8.30
2022-10-18T07:15:45.070Z,8.30
2022-10-18T07:18:12.979Z,8.40
2022-10-18T07:20:41.113Z,8.40
2022-10-18T07:23:11.663Z,8.50
2022-10-18T07:25:40.218Z,8.50
2022-10-18T07:28:08.467Z,8.60
2022-10-18T07:30:37.480Z,8.60
2022-10-18T07:33:05.316Z,8.60
2022-10-18T07:35:33.058Z,8.70
2022-10-18T07:38:00.990Z,8.70
2022-10-18T07:40:28.671Z,8.70
2022-10-18T07:42:56.987Z,8.80
2022-10-18T07:45:24.725Z,8.80
2022-10-18T07:47:58.901Z,8.80
2022-10-18T07:50:26.748Z,8.90
2022-10-18T07:52:54.680Z,8.90
2022-10-18T07:55:22.947Z,9.00
2022-10-18T07:57:50.807Z,9.00
2022-10-18T08:00:18.766Z,9.10
2022-10-18T08:02:47.121Z,9.20
2022-10-18T08:05:17.789Z,9.30
2022-10-18T08:07:45.731Z,9.40
2022-10-18T08:10:16.133Z,9.40
2022-10-18T08:12:46.634Z,9.50
2022-10-18T08:15:16.580Z,9.60
2022-10-18T08:17:47.552Z,9.70
2022-10-18T08:20:29.978Z,9.80
2022-10-18T08:23:00.506Z,9.80
2022-10-18T08:25:30.164Z,9.90
2022-10-18T08:27:58.360Z,10.00
2022-10-18T08:30:26.096Z,10.10
2022-10-18T08:32:54.033Z,10.20
2022-10-18T08:35:22.035Z,10.30
2022-10-18T08:37:50.244Z,10.40
2022-10-18T08:40:18.109Z,10.50
2022-10-18T08:43:13.242Z,10.70
2022-10-18T08:45:43.249Z,11.00
2022-10-18T08:48:21.941Z,11.30
2022-10-18T08:50:51.049Z,11.60
2022-10-18T08:53:41.880Z,12.00
2022-10-18T08:56:18.958Z,12.40
2022-10-18T08:58:50.044Z,12.70
2022-10-18T09:01:51.479Z,13.00
2022-10-18T09:04:46.782Z,13.30
2022-10-18T09:07:33.374Z,13.70
2022-10-18T09:10:13.413Z,14.00
2022-10-18T09:13:10.589Z,14.20
2022-10-18T09:15:46.444Z,14.40
2022-10-18T09:18:41.828Z,14.60
2022-10-18T09:21:43.447Z,14.60
2022-10-18T09:24:13.158Z,14.70
2022-10-18T09:26:50.015Z,14.70
2022-10-18T09:29:29.381Z,14.70
2022-10-18T09:32:01.365Z,14.70
2022-10-18T09:34:32.162Z,14.70
2022-10-18T09:37:00.713Z,14.70
2022-10-18T09:39:37.404Z,14.70
2022-10-18T09:42:26.621Z,14.60
2022-10-18T09:45:17.247Z,14.70
2022-10-18T09:48:13.537Z,14.60
2022-10-18T09:50:50.597Z,14.60
2022-10-18T09:53:23.651Z,14.60
2022-10-18T09:56:01.305Z,14.60
2022-10-18T09:58:46.508Z,14.60
2022-10-18T10:01:21.049Z,14.60
2022-10-18T10:03:49.595Z,14.70
2022-10-18T10:06:25.243Z,14.70
2022-10-18T10:11:45.347Z,14.80
2022-10-18T10:16:52.160Z,14.90
2022-10-18T10:19:23.494Z,15.00
2022-10-18T10:21:56.249Z,15.00
2022-10-18T10:24:31.139Z,15.10
2022-10-18T10:27:03.963Z,15.10
2022-10-18T10:29:49.263Z,15.10
2022-10-18T10:32:20.350Z,15.20
2022-10-18T10:34:49.574Z,15.30
2022-10-18T10:37:27.900Z,15.40
2022-10-18T10:40:18.314Z,15.50
2022-10-18T10:43:25.650Z,15.60
2022-10-18T10:46:06.217Z,15.70
2022-10-18T10:49:04.110Z,15.80
2022-10-18T10:51:43.648Z,15.90
2022-10-18T10:54:22.323Z,15.90
2022-10-18T10:57:01.100Z,16.00
2022-10-18T11:02:17.676Z,16.20
2022-10-18T11:04:48.174Z,16.20
2022-10-18T11:07:27.109Z,16.30
2022-10-18T11:10:15.805Z,16.30
2022-10-18T11:13:05.278Z,16.40
2022-10-18T11:15:39.884Z,16.50
2022-10-18T11:18:17.410Z,16.50
2022-10-18T11:20:51.229Z,16.60
2022-10-18T11:23:25.542Z,16.60
2022-10-18T11:26:11.722Z,16.70
2022-10-18T11:28:58.713Z,16.70
2022-10-18T11:32:02.060Z,16.80
2022-10-18T11:34:41.645Z,16.80
2022-10-18T11:37:50.192Z,16.90
2022-10-18T11:40:44.728Z,16.90
2022-10-18T11:44:01.795Z,17.10
2022-10-18T11:46:52.568Z,17.10
2022-10-18T11:49:29.218Z,17.10
2022-10-18T11:52:15.704Z,17.20
2022-10-18T11:54:53.059Z,17.20
2022-10-18T11:57:36.197Z,17.30
2022-10-18T12:00:14.335Z,17.30
2022-10-18T12:03:04.446Z,17.40
2022-10-18T12:05:33.341Z,17.50
2022-10-18T12:08:50.621Z,17.50
2022-10-18T12:11:38.472Z,17.60
2022-10-18T12:15:38.643Z,17.60
2022-10-18T12:18:17.861Z,17.70
2022-10-18T12:20:53.823Z,17.60
2022-10-18T12:23:38.204Z,17.70
2022-10-18T12:26:10.834Z,17.80
2022-10-18T12:28:44.663Z,17.80
2022-10-18T12:31:26.340Z,17.90
2022-10-18T12:34:06.214Z,18.00
2022-10-18T12:36:53.621Z,17.90
2022-10-18T12:39:38.927Z,17.90
2022-10-18T12:42:24.501Z,17.80
2022-10-18T12:45:04.464Z,17.90
2022-10-18T12:47:33.464Z,17.90
2022-10-18T12:50:06.143Z,18.00
2022-10-18T12:52:37.069Z,18.10
2022-10-18T12:55:25.421Z,18.20
2022-10-18T12:57:53.106Z,18.20
2022-10-18T13:00:51.555Z,18.20
2022-10-18T13:03:25.574Z,18.20
2022-10-18T13:05:58.408Z,18.20
2022-10-18T13:08:30.374Z,18.20
2022-10-18T13:11:10.578Z,18.20
2022-10-18T13:14:16.767Z,18.30
2022-10-18T13:17:17.027Z,18.30
2022-10-18T13:20:07.770Z,18.30
2022-10-18T13:23:09.004Z,18.30
2022-10-18T13:25:58.399Z,18.40
2022-10-18T13:28:39.804Z,18.30
2022-10-18T13:31:23.839Z,18.30
2022-10-18T13:33:54.666Z,18.30
2022-10-18T13:36:25.283Z,18.30
2022-10-18T13:38:53.542Z,18.30
2022-10-18T13:41:53.679Z,18.20
2022-10-18T13:44:37.734Z,18.30
2022-10-18T13:47:09.875Z,18.30
2022-10-18T13:49:57.202Z,18.40
2022-10-18T13:53:01.382Z,18.40
2022-10-18T13:55:32.558Z,18.30
2022-10-18T13:58:26.204Z,18.20
2022-10-18T14:01:21.195Z,18.20
2022-10-18T14:04:19.871Z,18.20
2022-10-18T14:06:48.994Z,18.10
2022-10-18T14:09:26.186Z,18.10
2022-10-18T14:12:27.434Z,18.00
2022-10-18T14:15:09.971Z,18.00
2022-10-18T14:17:57.233Z,18.00
2022-10-18T14:20:29.852Z,18.00
2022-10-18T14:23:17.075Z,18.00
2022-10-18T14:25:46.127Z,17.90
2022-10-18T14:28:27.455Z,17.90
2022-10-18T14:31:07.244Z,17.90
2022-10-18T14:33:47.141Z,17.80
2022-10-18T14:36:21.102Z,17.80
2022-10-18T14:41:24.550Z,17.80
2022-10-18T14:44:09.978Z,17.90
2022-10-18T14:46:53.377Z,17.80
2022-10-18T14:49:22.295Z,17.80
2022-10-18T14:51:57.055Z,17.70
2022-10-18T14:54:37.833Z,17.70
2022-10-18T14:57:07.264Z,17.70
2022-10-18T14:59:46.812Z,17.60
2022-10-18T15:02:18.001Z,17.60
2022-10-18T15:04:47.797Z,17.60
2022-10-18T15:07:18.171Z,17.60
2022-10-18T15:09:48.258Z,17.60
2022-10-18T15:12:17.756Z,17.50
2022-10-18T15:14:46.675Z,17.40
2022-10-18T15:17:21.411Z,17.40
2022-10-18T15:20:00.521Z,17.30
2022-10-18T15:22:33.320Z,17.30
2022-10-18T15:25:17.946Z,17.20
2022-10-18T15:27:49.660Z,17.20
2022-10-18T15:30:20.051Z,17.10
2022-10-18T15:32:54.233Z,17.10
2022-10-18T15:35:29.933Z,17.00
2022-10-18T15:38:15.364Z,17.00
2022-10-18T15:40:43.778Z,16.90
2022-10-18T15:43:23.533Z,16.90
2022-10-18T15:46:06.609Z,16.80
2022-10-18T15:48:38.348Z,16.70
2022-10-18T15:51:20.893Z,16.70
2022-10-18T15:53:55.114Z,16.70
2022-10-18T15:56:35.337Z,16.60
2022-10-18T15:59:06.756Z,16.50
2022-10-18T16:01:43.675Z,16.50
2022-10-18T16:04:20.905Z,16.50
2022-10-18T16:06:49.768Z,16.40
2022-10-18T16:09:22.010Z,16.30
2022-10-18T16:11:56.369Z,16.20
2022-10-18T16:14:26.559Z,16.20
2022-10-18T16:17:03.638Z,16.20
2022-10-18T16:19:32.056Z,16.10
2022-10-18T16:22:05.992Z,16.10
2022-10-18T16:24:34.316Z,16.00
2022-10-18T16:27:02.218Z,15.90
2022-10-18T16:29:33.005Z,15.80
2022-10-18T16:32:02.035Z,15.80
2022-10-18T16:34:33.038Z,15.70
2022-10-18T16:37:04.188Z,15.70
2022-10-18T16:39:34.931Z,15.60
2022-10-18T16:42:03.220Z,15.60
2022-10-18T16:44:36.127Z,15.50
2022-10-18T16:47:04.143Z,15.50
2022-10-18T16:49:32.738Z,15.40
2022-10-18T16:52:00.738Z,15.30
2022-10-18T16:54:28.640Z,15.30
2022-10-18T16:56:59.573Z,15.20
2022-10-18T16:59:30.240Z,15.10
2022-10-18T17:01:58.318Z,15.10
2022-10-18T17:04:27.113Z,15.00
2022-10-18T17:06:58.625Z,15.00
2022-10-18T17:09:26.829Z,14.90
2022-10-18T17:11:55.098Z,14.90
2022-10-18T17:14:23.210Z,14.80
2022-10-18T17:16:54.807Z,14.80
2022-10-18T17:19:24.947Z,14.80
2022-10-18T17:21:52.903Z,14.80
2022-10-18T17:24:21.105Z,14.70
2022-10-18T17:26:49.025Z,14.70
2022-10-18T17:29:16.775Z,14.70
2022-10-18T17:31:44.888Z,14.60
2022-10-18T17:34:16.457Z,14.60
2022-10-18T17:36:47.289Z,14.60
2022-10-18T17:39:15.120Z,14.50
2022-10-18T17:41:45.188Z,14.50
2022-10-18T17:44:13.446Z,14.50
2022-10-18T17:46:42.147Z,14.40
2022-10-18T17:49:10.274Z,14.40
2022-10-18T17:51:38.744Z,14.30
2022-10-18T17:54:08.115Z,14.30
2022-10-18T17:56:36.485Z,14.30
2022-10-18T17:59:05.227Z,14.20
2022-10-18T18:01:33.523Z,14.20
2022-10-18T18:04:03.544Z,14.20
2022-10-18T18:06:35.360Z,14.10
2022-10-18T18:09:12.495Z,14.10
2022-10-18T18:11:48.242Z,14.10
2022-10-18T18:14:16.741Z,14.10
2022-10-18T18:16:46.766Z,14.00
2022-10-18T18:19:16.016Z,14.00
2022-10-18T18:21:44.653Z,14.00
2022-10-18T18:24:14.007Z,14.00
2022-10-18T18:26:43.398Z,13.90
2022-10-18T18:29:13.878Z,13.90
2022-10-18T18:31:43.804Z,13.90
2022-10-18T18:34:12.795Z,13.90
2022-10-18T18:36:41.793Z,13.80
2022-10-18T18:39:22.055Z,13.80
2022-10-18T18:41:51.077Z,13.80
2022-10-18T18:44:21.443Z,13.80
2022-10-18T18:46:50.769Z,13.70
2022-10-18T18:49:18.998Z,13.70
2022-10-18T18:51:47.634Z,13.70
2022-10-18T18:54:15.981Z,13.70
2022-10-18T18:56:44.670Z,13.70
2022-10-18T18:59:14.934Z,13.70
2022-10-18T19:01:44.143Z,13.70
2022-10-18T19:04:12.717Z,13.70
2022-10-18T19:06:43.339Z,13.60
2022-10-18T19:09:22.002Z,13.60
2022-10-18T19:11:55.731Z,13.60
2022-10-18T19:14:25.843Z,13.60
2022-10-18T19:16:59.258Z,13.60
2022-10-18T19:19:29.749Z,13.60
2022-10-18T19:22:00.797Z,13.50
2022-10-18T19:24:30.781Z,13.50
2022-10-18T19:27:01.417Z,13.50
2022-10-18T19:29:37.071Z,13.50
2022-10-18T19:32:12.128Z,13.50
2022-10-18T19:34:43.716Z,13.40
2022-10-18T19:37:15.427Z,13.40
2022-10-18T19:39:43.519Z,13.50
2022-10-18T19:42:16.010Z,13.40
2022-10-18T19:44:46.843Z,13.40
2022-10-18T19:47:16.007Z,13.40
2022-10-18T19:49:43.912Z,13.40
2022-10-18T19:52:12.545Z,13.40
2022-10-18T19:54:40.933Z,13.40
2022-10-18T19:57:09.439Z,13.40
2022-10-18T19:59:37.242Z,13.40
2022-10-18T20:02:05.319Z,13.40
2022-10-18T20:04:35.305Z,13.40
2022-10-18T20:07:04.216Z,13.30
2022-10-18T20:09:32.463Z,13.30
2022-10-18T20:12:00.487Z,13.30
2022-10-18T20:14:28.300Z,13.30
2022-10-18T20:16:56.739Z,13.30
2022-10-18T20:19:24.622Z,13.30
2022-10-18T20:21:56.272Z,13.20
2022-10-18T20:24:24.038Z,13.30
2022-10-18T20:29:21.005Z,13.20
2022-10-18T20:31:49.600Z,13.20
2022-10-18T20:34:17.409Z,13.20
2022-10-18T20:36:46.071Z,13.20
2022-10-18T20:39:14.299Z,13.20
2022-10-18T20:41:42.835Z,13.10
2022-10-18T20:44:17.001Z,13.10
2022-10-18T20:46:45.479Z,13.10
2022-10-18T20:49:15.448Z,13.10
2022-10-18T20:51:44.400Z,13.10
2022-10-18T20:54:12.736Z,13.10
2022-10-18T20:56:40.815Z,13.10
2022-10-18T20:59:10.105Z,13.00
2022-10-18T21:01:39.692Z,13.10
2022-10-18T21:04:10.400Z,13.10
2022-10-18T21:06:42.853Z,13.10
2022-10-18T21:09:16.995Z,13.10
2022-10-18T21:11:48.093Z,13.10
2022-10-18T21:14:19.419Z,13.10
2022-10-18T21:16:49.751Z,13.10
2022-10-18T21:19:28.247Z,13.10
2022-10-18T21:21:57.620Z,13.10
2022-10-18T21:24:30.068Z,13.10
2022-10-18T21:26:59.188Z,13.00
2022-10-18T21:29:27.166Z,13.10
2022-10-18T21:31:59.351Z,13.10
2022-10-18T21:34:28.132Z,13.10
2022-10-18T21:36:57.142Z,13.10
2022-10-18T21:39:25.612Z,13.10
2022-10-18T21:41:54.166Z,13.00
2022-10-18T21:44:24.433Z,13.10
2022-10-18T21:46:52.563Z,13.10
2022-10-18T21:49:20.517Z,13.10
2022-10-18T21:51:51.457Z,13.10
2022-10-18T21:54:19.828Z,13.00
2022-10-18T21:56:47.993Z,13.10
2022-10-18T21:59:16.315Z,13.10
2022-10-18T22:01:47.448Z,13.00
2022-10-18T22:04:22.311Z,13.00
2022-10-18T22:06:51.460Z,13.00
2022-10-18T22:09:22.961Z,13.00
2022-10-18T22:11:53.186Z,13.00
2022-10-18T22:14:22.293Z,13.00
2022-10-18T22:16:50.951Z,13.00
2022-10-18T22:19:19.842Z,13.00
2022-10-18T22:21:48.349Z,13.00
2022-10-18T22:24:16.541Z,13.00
2022-10-18T22:26:45.710Z,13.00
2022-10-18T22:29:23.102Z,13.00
2022-10-18T22:31:53.623Z,13.00
2022-10-18T22:34:24.533Z,13.00
2022-10-18T22:36:55.643Z,12.90
2022-10-18T22:39:24.707Z,12.90
2022-10-18T22:41:56.701Z,12.90
2022-10-18T22:44:24.863Z,12.90
2022-10-18T22:46:52.943Z,12.80
2022-10-18T22:49:20.777Z,12.80
2022-10-18T22:51:48.793Z,12.90
2022-10-18T22:54:16.714Z,12.80
2022-10-18T22:56:44.796Z,12.80
2022-10-18T22:59:12.556Z,12.80
2022-10-18T23:01:41.107Z,12.80
2022-10-18T23:04:10.863Z,12.80
2022-10-18T23:06:40.774Z,12.80
2022-10-18T23:09:10.863Z,12.70
2022-10-18T23:11:39.010Z,12.70
2022-10-18T23:14:07.148Z,12.70
2022-10-18T23:16:36.622Z,12.60
2022-10-18T23:19:05.226Z,12.60
2022-10-18T23:21:34.379Z,12.60
2022-10-18T23:24:03.578Z,12.60
2022-10-18T23:26:32.827Z,12.50
2022-10-18T23:29:01.151Z,12.50
2022-10-18T23:31:34.366Z,12.50
2022-10-18T23:34:46.538Z,12.50
2022-10-18T23:37:15.778Z,12.50
2022-10-18T23:39:43.523Z,12.40
2022-10-18T23:42:12.074Z,12.40
2022-10-18T23:44:40.466Z,12.40
2022-10-18T23:47:08.964Z,12.30
2022-10-18T23:49:36.711Z,12.40
2022-10-18T23:52:08.126Z,12.30
2022-10-18T23:54:36.446Z,12.30
2022-10-18T23:57:04.992Z,12.20
2022-10-18T23:59:33.528Z,12.20
